createdAt,value
2023-05-12T00:04:57.660Z,8.71
2023-05-12T00:10:05.088Z,9.78
2023-05-12T00:15:12.339Z,11.37
2023-05-12T00:20:19.981Z,10.98
2023-05-12T00:25:26.865Z,11.03
2023-05-12T00:30:34.366Z,9.55
2023-05-12T00:35:41.588Z,9.71
2023-05-12T00:40:49.030Z,8.24
2023-05-12T00:45:56.259Z,9.05
2023-05-12T00:51:03.699Z,11.67
2023-05-12T00:56:10.936Z,9.11
2023-05-12T01:01:18.319Z,9.49
2023-05-12T01:06:25.545Z,11.22
2023-05-12T01:11:32.872Z,11.34
2023-05-12T01:16:40.376Z,11.79
2023-05-12T01:21:47.733Z,11.41
2023-05-12T01:26:54.981Z,10.14
2023-05-12T01:32:02.375Z,10.02
2023-05-12T01:37:09.641Z,10.03
2023-05-12T01:42:16.995Z,10.70
2023-05-12T01:47:24.257Z,9.09
2023-05-12T01:52:31.635Z,10.08
2023-05-12T01:57:38.817Z,11.29
2023-05-12T02:02:46.456Z,12.79
2023-05-12T02:07:53.704Z,12.60
2023-05-12T02:13:01.002Z,9.18
2023-05-12T02:18:08.299Z,10.21
2023-05-12T02:23:15.676Z,11.37
2023-05-12T02:28:22.969Z,10.32
2023-05-12T02:33:30.514Z,13.45
2023-05-12T02:38:38.188Z,9.43
2023-05-12T02:43:45.582Z,11.10
2023-05-12T02:48:52.858Z,11.06
2023-05-12T02:54:00.234Z,10.73
2023-05-12T02:59:07.401Z,11.10
2023-05-12T03:04:14.855Z,11.54
2023-05-12T03:09:22.124Z,11.40
2023-05-12T03:14:29.468Z,11.99
2023-05-12T03:19:36.717Z,10.30
2023-05-12T03:24:44.012Z,12.14
2023-05-12T03:29:51.288Z,12.64
2023-05-12T03:34:58.593Z,10.12
2023-05-12T03:40:05.864Z,11.23
2023-05-12T03:45:13.311Z,11.32
2023-05-12T03:50:20.766Z,14.64
2023-05-12T03:55:27.873Z,10.44
2023-05-12T04:00:35.267Z,11.51
2023-05-12T04:05:42.589Z,8.56
2023-05-12T04:10:49.869Z,8.48
2023-05-12T04:15:57.298Z,8.95
2023-05-12T04:21:04.510Z,12.63
2023-05-12T04:26:11.853Z,11.20
2023-05-12T04:31:19.129Z,9.12
2023-05-12T04:36:26.456Z,11.12
2023-05-12T04:41:33.727Z,9.35
2023-05-12T04:46:41.195Z,8.37
2023-05-12T04:51:48.343Z,11.63
2023-05-12T04:56:55.759Z,11.25
2023-05-12T05:02:03.153Z,10.35
2023-05-12T05:07:10.502Z,11.44
2023-05-12T05:12:17.688Z,10.78
2023-05-12T05:17:25.175Z,11.15
2023-05-12T05:22:32.371Z,10.66
2023-05-12T05:27:40.076Z,11.62
2023-05-12T05:32:48.167Z,10.78
2023-05-12T05:37:55.691Z,10.49
2023-05-12T05:43:04.309Z,9.45
2023-05-12T05:48:11.774Z,10.31
2023-05-12T05:53:19.547Z,9.96
2023-05-12T05:58:26.091Z,8.91
2023-05-12T06:03:33.411Z,7.86
2023-05-12T06:08:40.683Z,12.57
2023-05-12T06:13:47.990Z,6.74
2023-05-12T06:18:55.399Z,7.74
2023-05-12T06:24:02.546Z,7.62
2023-05-12T06:29:09.949Z,8.86
2023-05-12T06:34:17.140Z,8.70
2023-05-12T06:39:24.545Z,8.26
2023-05-12T06:44:31.816Z,8.21
2023-05-12T06:49:39.289Z,9.52
2023-05-12T06:54:46.523Z,9.59
2023-05-12T06:59:53.914Z,7.74
2023-05-12T07:05:01.228Z,6.89
2023-05-12T07:10:08.580Z,8.00
2023-05-12T07:15:15.843Z,7.71
2023-05-12T07:20:23.265Z,8.46
2023-05-12T07:25:30.615Z,8.33
2023-05-12T07:30:37.901Z,7.18
2023-05-12T07:35:45.180Z,8.69
2023-05-12T07:40:52.644Z,8.19
2023-05-12T07:45:59.859Z,6.63
2023-05-12T07:51:07.296Z,8.67
2023-05-12T07:56:14.592Z,7.99
2023-05-12T08:01:21.999Z,9.76
2023-05-12T08:06:29.178Z,8.24
2023-05-12T08:11:36.728Z,8.76
2023-05-12T08:16:43.919Z,8.25
2023-05-12T08:21:51.493Z,12.57
2023-05-12T08:26:58.825Z,10.01
2023-05-12T08:32:06.406Z,8.07
2023-05-12T08:37:13.674Z,7.88
2023-05-12T08:42:21.255Z,9.70
2023-05-12T08:47:28.586Z,10.79
2023-05-12T08:52:35.948Z,8.58
2023-05-12T08:57:43.084Z,9.39
2023-05-12T09:02:54.480Z,7.00
2023-05-12T09:07:57.458Z,6.26
2023-05-12T09:13:04.961Z,8.84
2023-05-12T09:18:12.548Z,8.98
2023-05-12T09:23:19.899Z,7.56
2023-05-12T09:28:27.752Z,6.41
2023-05-12T09:33:35.534Z,7.65
2023-05-12T09:38:42.949Z,8.01
2023-05-12T09:43:50.233Z,5.89
2023-05-12T09:48:57.763Z,6.22
2023-05-12T09:54:07.142Z,5.96
2023-05-12T09:59:12.194Z,8.86
2023-05-12T10:04:19.897Z,7.46
2023-05-12T10:09:27.334Z,10.70
2023-05-12T10:14:35.150Z,9.50
2023-05-12T10:19:42.412Z,10.30
2023-05-12T10:24:50.079Z,6.26
2023-05-12T10:29:57.411Z,6.46
2023-05-12T10:35:04.823Z,6.00
2023-05-12T10:40:12.067Z,6.05
2023-05-12T10:45:19.730Z,8.16
2023-05-12T10:50:26.256Z,7.81
2023-05-12T10:55:33.734Z,8.25
2023-05-12T11:00:41.496Z,7.01
2023-05-12T11:05:48.993Z,5.29
2023-05-12T11:10:55.483Z,6.43
2023-05-12T11:16:02.786Z,7.05
2023-05-12T11:21:10.058Z,7.67
2023-05-12T11:26:17.640Z,7.83
2023-05-12T11:31:25.090Z,8.74
2023-05-12T11:36:32.636Z,9.44
2023-05-12T11:41:39.969Z,7.48
2023-05-12T11:46:47.332Z,4.68
2023-05-12T11:51:54.602Z,4.69
2023-05-12T11:57:02.227Z,6.83
2023-05-12T12:02:09.525Z,6.21
2023-05-12T12:07:16.938Z,7.63
2023-05-12T12:12:24.154Z,4.31
2023-05-12T12:17:31.668Z,5.15
2023-05-12T12:22:38.949Z,4.52
2023-05-12T12:27:46.297Z,4.05
2023-05-12T12:32:53.506Z,3.74
2023-05-12T12:38:00.845Z,5.38
2023-05-12T12:43:08.134Z,4.97
2023-05-12T12:48:15.495Z,4.74
2023-05-12T12:53:22.672Z,5.47
2023-05-12T12:58:30.193Z,5.19
2023-05-12T13:03:37.435Z,4.94
2023-05-12T13:08:44.954Z,6.45
2023-05-12T13:13:52.239Z,5.50
2023-05-12T13:18:59.649Z,6.82
2023-05-12T13:24:06.844Z,5.20
2023-05-12T13:29:14.214Z,5.64
2023-05-12T13:34:21.426Z,6.19
2023-05-12T13:39:28.915Z,8.07
2023-05-12T13:44:36.128Z,6.76
2023-05-12T13:49:43.529Z,10.71
2023-05-12T13:54:50.720Z,8.27
2023-05-12T13:59:58.556Z,8.09
2023-05-12T14:05:06.212Z,8.68
2023-05-12T14:10:14.048Z,9.94
2023-05-12T14:15:32.503Z,9.63
2023-05-12T14:20:28.428Z,8.55
2023-05-12T14:25:35.771Z,7.16
2023-05-12T14:30:43.245Z,8.70
2023-05-12T14:35:59.379Z,7.53
2023-05-12T14:40:57.443Z,9.14
2023-05-12T14:46:04.888Z,7.49
2023-05-12T14:51:12.228Z,9.14
2023-05-12T14:56:19.550Z,5.69
2023-05-12T15:01:27.086Z,6.12
2023-05-12T15:06:34.334Z,5.28
2023-05-12T15:11:41.798Z,6.10
2023-05-12T15:16:49.076Z,5.07
2023-05-12T15:21:56.411Z,4.63
2023-05-12T15:32:09.341Z,7.56
2023-05-12T15:37:17.934Z,6.11
2023-05-12T15:42:29.956Z,6.19
2023-05-12T15:47:32.201Z,5.31
2023-05-12T15:52:39.593Z,4.63
2023-05-12T15:57:46.856Z,7.13
2023-05-12T16:02:54.481Z,6.48
2023-05-12T16:08:01.748Z,4.64
2023-05-12T16:13:10.268Z,8.23
2023-05-12T16:18:17.564Z,6.71
2023-05-12T16:23:24.869Z,16.19
2023-05-12T16:28:34.204Z,7.90
2023-05-12T16:33:41.824Z,8.19
2023-05-12T16:38:49.060Z,8.10
2023-05-12T16:43:56.431Z,7.24
2023-05-12T16:49:03.718Z,7.27
2023-05-12T16:54:11.194Z,6.98
2023-05-12T16:59:18.481Z,6.06
2023-05-12T17:04:30.899Z,4.19
2023-05-12T17:09:34.159Z,6.05
2023-05-12T17:14:41.754Z,8.00
2023-05-12T17:19:48.332Z,6.00
2023-05-12T17:24:56.364Z,5.55
2023-05-12T17:30:03.706Z,5.31
2023-05-12T17:35:11.311Z,8.86
2023-05-12T17:40:18.645Z,7.87
2023-05-12T17:45:26.309Z,7.70
2023-05-12T17:50:33.629Z,6.25
2023-05-12T17:55:41.204Z,7.33
2023-05-12T18:00:48.685Z,6.10
2023-05-12T18:05:56.130Z,6.01
2023-05-12T18:11:03.654Z,6.76
2023-05-12T18:16:21.602Z,6.26
2023-05-12T18:21:18.323Z,10.54
2023-05-12T18:26:26.236Z,8.77
2023-05-12T18:31:34.256Z,11.17
2023-05-12T18:36:41.972Z,12.40
2023-05-12T18:41:49.258Z,25.80
2023-05-12T18:46:56.730Z,33.23
2023-05-12T18:52:03.876Z,18.81
2023-05-12T18:57:11.390Z,10.32
2023-05-12T19:02:18.589Z,8.10
2023-05-12T19:07:26.039Z,7.32
2023-05-12T19:12:33.236Z,6.91
2023-05-12T19:17:41.026Z,6.53
2023-05-12T19:22:48.317Z,8.53
2023-05-12T19:27:55.766Z,6.60
2023-05-12T19:33:03.215Z,7.95
2023-05-12T19:38:10.441Z,8.66
2023-05-12T19:43:17.633Z,6.39
2023-05-12T19:48:25.108Z,10.41
2023-05-12T19:53:32.406Z,10.06
2023-05-12T19:58:39.749Z,7.03
2023-05-12T20:03:46.990Z,7.37
2023-05-12T20:08:54.259Z,10.73
2023-05-12T20:14:01.533Z,9.36
2023-05-12T20:19:09.085Z,8.56
2023-05-12T20:24:16.269Z,7.41
2023-05-12T20:29:23.736Z,7.69
2023-05-12T20:34:31.165Z,8.76
2023-05-12T20:39:38.602Z,10.61
2023-05-12T20:44:45.962Z,8.47
2023-05-12T20:49:53.445Z,9.60
2023-05-12T20:55:00.831Z,10.67
2023-05-12T21:00:08.258Z,9.79
2023-05-12T21:05:15.531Z,11.83
2023-05-12T21:10:23.016Z,11.07
2023-05-12T21:15:30.351Z,8.16
2023-05-12T21:20:37.779Z,7.95
2023-05-12T21:25:45.098Z,9.01
2023-05-12T21:30:52.520Z,9.12
2023-05-12T21:35:59.862Z,7.97
2023-05-12T21:41:07.237Z,10.67
2023-05-12T21:46:14.603Z,10.99
2023-05-12T21:51:21.973Z,10.21
2023-05-12T21:56:29.307Z,10.32
2023-05-12T22:01:37.077Z,8.29
2023-05-12T22:06:44.091Z,7.81
2023-05-12T22:11:51.438Z,8.78
2023-05-12T22:16:58.709Z,9.07
2023-05-12T22:22:06.100Z,8.36
2023-05-12T22:27:13.423Z,10.60
2023-05-12T22:32:20.863Z,8.25
2023-05-12T22:37:28.035Z,9.42
2023-05-12T22:42:35.452Z,9.61
2023-05-12T22:47:42.720Z,7.30
2023-05-12T22:52:50.119Z,8.34
2023-05-12T22:57:57.561Z,9.88
2023-05-12T23:03:05.359Z,9.70
2023-05-12T23:08:12.746Z,7.15
2023-05-12T23:13:20.171Z,8.24
2023-05-12T23:18:27.515Z,10.24
2023-05-12T23:23:35.185Z,11.58
2023-05-12T23:28:43.820Z,9.58
2023-05-12T23:33:51.820Z,8.36
2023-05-12T23:38:59.320Z,10.56
2023-05-12T23:44:07.128Z,13.78
2023-05-12T23:49:15.945Z,10.63
2023-05-12T23:54:23.752Z,14.66
2023-05-12T23:59:31.331Z,11.37
